Time;durP1;ratioP1;P1;durP2;ratioP2;P2;SDS_P1;SDS_P2;PMS_P1;PMS_P2;Temp;Humidity;BMP_temperature;BMP_pressure;BME280_temperature;BME280_humidity;BME280_pressure;Samples;Min_cycle;Max_cycle;Signal;HPM_P1;HPM_P2
2023/04/12 00:00:22;;;;;;;11.48;3.22;;;8.40;99.90;;;;;;5083613;28;20036;-50
2023/04/12 00:02:53;;;;;;;8.10;2.50;;;8.40;99.90;;;;;;5111863;28;20043;-53
2023/04/12 00:05:21;;;;;;;6.88;2.70;;;8.50;99.90;;;;;;5107324;28;20075;-50
2023/04/12 00:07:52;;;;;;;9.20;2.40;;;8.50;99.90;;;;;;5114995;28;20036;-48
2023/04/12 00:10:18;;;;;;;9.38;2.92;;;8.50;99.90;;;;;;5115508;28;20100;-53
2023/04/12 00:12:45;;;;;;;10.88;3.05;;;8.50;99.90;;;;;;5115462;28;20090;-49
2023/04/12 00:15:10;;;;;;;5.65;2.30;;;8.50;99.90;;;;;;5097353;28;20035;-48
2023/04/12 00:17:36;;;;;;;6.47;2.65;;;8.50;99.90;;;;;;5112972;28;20046;-49
2023/04/12 00:20:10;;;;;;;9.93;3.00;;;8.50;99.90;;;;;;5105757;28;20407;-49
2023/04/12 00:22:35;;;;;;;9.18;2.80;;;8.50;99.90;;;;;;5103160;28;20039;-48
2023/04/12 00:25:01;;;;;;;11.15;2.83;;;8.50;99.90;;;;;;5113415;28;20044;-51
2023/04/12 00:27:27;;;;;;;10.57;2.78;;;8.50;99.90;;;;;;5115315;28;20047;-49
2023/04/12 00:29:52;;;;;;;8.00;2.80;;;8.50;99.90;;;;;;5097166;28;20119;-50
2023/04/12 00:32:18;;;;;;;6.82;2.63;;;8.50;99.90;;;;;;5115322;28;20046;-48
2023/04/12 00:34:43;;;;;;;11.18;2.80;;;8.60;99.90;;;;;;5115349;28;20046;-50
2023/04/12 00:37:09;;;;;;;10.73;2.78;;;8.60;99.90;;;;;;5093259;28;20039;-48
2023/04/12 00:39:35;;;;;;;8.82;2.80;;;8.60;99.90;;;;;;5106147;28;20044;-49
2023/04/12 00:42:04;;;;;;;11.43;2.58;;;8.60;99.90;;;;;;5105694;28;20059;-48
2023/04/12 00:44:31;;;;;;;11.05;3.05;;;8.60;99.90;;;;;;5104660;28;20465;-48
2023/04/12 00:46:58;;;;;;;6.43;2.55;;;8.70;99.90;;;;;;5105033;28;20230;-50
2023/04/12 00:49:29;;;;;;;10.57;2.83;;;8.70;99.90;;;;;;5104505;28;20481;-49
2023/04/12 00:52:09;;;;;;;8.77;2.75;;;8.80;99.90;;;;;;5103769;28;20032;-54
2023/04/12 00:54:36;;;;;;;8.65;2.95;;;8.80;99.90;;;;;;5102971;28;20442;-51
2023/04/12 00:57:02;;;;;;;12.13;2.70;;;8.90;99.90;;;;;;5103415;28;20482;-48
2023/04/12 00:59:28;;;;;;;9.35;2.60;;;9.00;99.90;;;;;;5103439;28;20047;-49
2023/04/12 01:01:58;;;;;;;8.18;2.20;;;9.20;99.90;;;;;;5080512;28;20405;-51
2023/04/12 01:04:25;;;;;;;11.00;2.65;;;9.20;99.90;;;;;;5082677;28;20134;-49
2023/04/12 01:07:27;;;;;;;6.28;2.63;;;9.20;99.90;;;;;;5110041;28;20048;-50
2023/04/12 01:10:13;;;;;;;10.27;2.70;;;9.20;99.90;;;;;;5110474;28;20131;-51
2023/04/12 01:12:57;;;;;;;8.77;2.83;;;9.30;99.90;;;;;;5111200;28;20044;-49
2023/04/12 01:15:25;;;;;;;11.57;2.80;;;9.30;99.90;;;;;;5113141;28;20489;-49
2023/04/12 01:18:09;;;;;;;9.43;2.83;;;9.20;99.90;;;;;;5112145;28;20047;-48
2023/04/12 01:20:43;;;;;;;9.63;2.65;;;9.20;99.90;;;;;;5093984;28;20051;-48
2023/04/12 01:23:33;;;;;;;11.52;3.15;;;9.20;99.90;;;;;;5093444;28;20055;-48
2023/04/12 01:26:21;;;;;;;8.85;2.70;;;9.20;99.90;;;;;;5102084;28;20048;-48
2023/04/12 01:28:52;;;;;;;8.35;3.15;;;9.20;99.90;;;;;;5108120;28;20055;-48
2023/04/12 01:31:19;;;;;;;10.13;2.50;;;9.20;99.90;;;;;;5111612;28;20153;-48
2023/04/12 01:33:48;;;;;;;8.30;2.60;;;9.20;99.90;;;;;;5112174;28;20382;-51
2023/04/12 01:36:19;;;;;;;8.73;2.75;;;9.20;99.90;;;;;;5113977;28;20123;-52
2023/04/12 01:38:45;;;;;;;10.00;2.60;;;9.20;99.90;;;;;;5107559;28;20051;-51
2023/04/12 01:41:11;;;;;;;7.32;2.95;;;9.20;99.90;;;;;;5107978;28;20150;-50
2023/04/12 01:43:44;;;;;;;7.35;2.90;;;9.20;99.90;;;;;;5108186;28;20131;-49
2023/04/12 01:46:13;;;;;;;7.53;2.70;;;9.20;99.90;;;;;;5104675;28;20070;-52
2023/04/12 01:48:40;;;;;;;8.00;2.90;;;9.10;99.90;;;;;;5100406;28;20040;-50
2023/04/12 01:51:13;;;;;;;6.83;2.77;;;9.10;99.90;;;;;;5106121;28;20109;-50
2023/04/12 01:53:53;;;;;;;8.40;2.40;;;9.10;99.90;;;;;;5106348;28;20071;-53
2023/04/12 01:56:21;;;;;;;6.32;2.20;;;9.10;99.90;;;;;;5106337;28;20051;-51
2023/04/12 01:58:49;;;;;;;10.07;3.05;;;9.10;99.90;;;;;;5105714;28;20036;-50
2023/04/12 02:01:17;;;;;;;7.03;2.38;;;9.10;99.90;;;;;;5087653;28;20059;-50
2023/04/12 02:03:44;;;;;;;7.00;2.30;;;9.10;99.90;;;;;;5105847;28;20040;-48
2023/04/12 02:06:10;;;;;;;6.47;2.10;;;9.00;99.90;;;;;;5106151;28;20031;-53
2023/04/12 02:08:36;;;;;;;6.05;1.90;;;9.00;99.90;;;;;;5106198;28;20051;-49
2023/04/12 02:11:09;;;;;;;8.43;2.65;;;9.00;99.90;;;;;;5107174;28;20043;-50
2023/04/12 02:13:35;;;;;;;8.77;2.45;;;9.00;99.90;;;;;;5090270;28;20040;-53
2023/04/12 02:16:01;;;;;;;6.78;2.17;;;8.90;99.90;;;;;;5108345;28;20039;-50
2023/04/12 02:18:27;;;;;;;8.77;2.20;;;8.90;99.90;;;;;;5105744;28;20043;-50
2023/04/12 02:20:53;;;;;;;5.18;1.90;;;8.90;99.90;;;;;;5106758;28;20047;-48
2023/04/12 02:23:19;;;;;;;7.85;2.08;;;8.90;99.90;;;;;;5107684;28;20093;-50
2023/04/12 02:25:45;;;;;;;7.75;2.08;;;8.80;99.90;;;;;;5099300;28;20047;-49
2023/04/12 02:28:14;;;;;;;7.40;2.20;;;8.80;99.90;;;;;;5107327;28;20501;-49
2023/04/12 02:30:43;;;;;;;6.57;1.70;;;8.80;99.90;;;;;;5105958;28;20039;-50
2023/04/12 02:33:08;;;;;;;6.18;2.10;;;8.80;99.90;;;;;;5104967;28;20040;-49
2023/04/12 02:35:35;;;;;;;8.32;2.53;;;8.70;99.90;;;;;;5104307;28;20046;-52
2023/04/12 02:38:02;;;;;;;6.70;1.85;;;8.70;99.90;;;;;;5101479;28;20038;-49
2023/04/12 02:40:28;;;;;;;8.18;2.17;;;8.70;99.90;;;;;;5109933;27;20117;-51
2023/04/12 02:42:54;;;;;;;4.72;1.58;;;8.70;99.90;;;;;;5126827;27;20088;-51
2023/04/12 02:45:20;;;;;;;4.65;1.70;;;8.70;99.90;;;;;;5134836;27;20039;-51
2023/04/12 02:47:45;;;;;;;10.18;1.98;;;8.70;99.90;;;;;;5131352;27;20042;-50
2023/04/12 02:50:11;;;;;;;6.07;2.17;;;8.70;99.90;;;;;;5131869;28;20129;-51
2023/04/12 02:52:37;;;;;;;7.70;2.13;;;8.60;99.90;;;;;;5132377;28;20050;-48
2023/04/12 02:55:03;;;;;;;7.00;1.80;;;8.60;99.90;;;;;;5131452;27;20138;-50
2023/04/12 02:57:28;;;;;;;6.43;1.75;;;8.60;99.90;;;;;;5128302;27;20073;-49
2023/04/12 02:59:54;;;;;;;5.60;1.90;;;8.70;99.90;;;;;;5131088;28;20462;-49
2023/04/12 03:02:21;;;;;;;5.68;1.88;;;8.70;99.90;;;;;;5132456;27;20039;-50
2023/04/12 03:04:49;;;;;;;8.18;1.92;;;8.60;99.90;;;;;;5131695;27;20036;-49
2023/04/12 03:07:20;;;;;;;6.55;1.90;;;8.60;99.90;;;;;;5132126;28;20043;-48
2023/04/12 03:09:48;;;;;;;6.07;2.00;;;8.60;99.90;;;;;;5131322;27;20064;-48
2023/04/12 03:12:14;;;;;;;;;;;8.70;99.90;;;;;;5113411;28;20433;-50
2023/04/12 03:14:40;;;;;;;7.72;2.08;;;8.60;99.90;;;;;;5108694;27;19952;-51
2023/04/12 03:17:06;;;;;;;7.63;2.67;;;8.60;99.90;;;;;;5124605;27;20043;-52
2023/04/12 03:19:34;;;;;;;6.40;2.10;;;8.60;99.90;;;;;;5124260;27;20552;-50
2023/04/12 03:22:00;;;;;;;5.78;2.20;;;8.60;99.90;;;;;;5123105;27;20039;-52
2023/04/12 03:24:26;;;;;;;5.63;2.00;;;8.60;99.90;;;;;;5124601;27;20118;-52
2023/04/12 03:26:53;;;;;;;4.53;1.90;;;8.60;99.90;;;;;;5123095;27;20039;-48
2023/04/12 03:29:19;;;;;;;5.50;2.10;;;8.70;99.90;;;;;;5124285;27;20039;-49
2023/04/12 03:31:45;;;;;;;6.40;2.20;;;8.70;99.90;;;;;;5123376;27;20050;-49
2023/04/12 03:34:10;;;;;;;9.35;2.35;;;8.70;99.90;;;;;;5128263;27;20481;-49
2023/04/12 03:36:37;;;;;;;6.10;2.05;;;8.70;99.90;;;;;;5130101;27;20035;-51
2023/04/12 03:39:02;;;;;;;5.70;1.85;;;8.70;99.90;;;;;;5132474;27;20039;-51
2023/04/12 03:41:28;;;;;;;7.15;2.28;;;8.70;99.90;;;;;;5116291;27;20050;-49
2023/04/12 03:43:54;;;;;;;5.70;2.30;;;8.70;99.90;;;;;;5102819;28;20485;-49
2023/04/12 03:46:19;;;;;;;7.57;2.40;;;8.70;99.90;;;;;;5105612;28;20040;-52
2023/04/12 03:48:45;;;;;;;6.57;2.20;;;8.70;99.90;;;;;;5100410;28;20142;-51
2023/04/12 03:51:12;;;;;;;6.18;2.58;;;8.70;99.90;;;;;;5101841;28;20043;-51
2023/04/12 03:53:38;;;;;;;5.60;1.80;;;8.70;99.90;;;;;;5087558;28;20031;-51
2023/04/12 03:56:04;;;;;;;5.65;1.90;;;8.70;99.90;;;;;;5103016;28;20039;-51
2023/04/12 03:58:32;;;;;;;5.15;1.90;;;8.70;99.90;;;;;;5103226;28;20097;-49
2023/04/12 04:01:00;;;;;;;5.50;1.90;;;8.70;99.90;;;;;;5108349;28;20090;-49
2023/04/12 04:03:28;;;;;;;6.35;2.20;;;8.80;99.90;;;;;;5105610;28;20079;-51
2023/04/12 04:05:55;;;;;;;6.10;2.20;;;8.70;99.90;;;;;;5106813;28;20051;-49
2023/04/12 04:08:21;;;;;;;6.32;2.60;;;8.70;99.90;;;;;;5103458;28;20389;-48
2023/04/12 04:10:46;;;;;;;5.20;1.73;;;8.70;99.90;;;;;;5115690;28;20036;-48
2023/04/12 04:13:12;;;;;;;7.00;1.98;;;8.70;99.90;;;;;;5116059;28;20043;-49
2023/04/12 04:15:38;;;;;;;9.25;2.60;;;8.70;99.90;;;;;;5113502;28;20350;-49
2023/04/12 04:18:04;;;;;;;3.72;1.90;;;8.70;99.90;;;;;;5113385;28;20079;-50
2023/04/12 04:20:30;;;;;;;7.03;2.28;;;8.70;99.90;;;;;;5114941;28;20358;-51
2023/04/12 04:22:56;;;;;;;5.93;1.92;;;8.70;99.90;;;;;;5115206;28;20046;-50
2023/04/12 04:25:28;;;;;;;5.57;2.13;;;8.60;99.90;;;;;;5115810;28;20397;-50
2023/04/12 04:27:54;;;;;;;4.38;2.15;;;8.60;99.90;;;;;;5115740;28;20507;-49
2023/04/12 04:30:21;;;;;;;6.57;2.20;;;8.50;99.90;;;;;;5115580;28;20052;-51
2023/04/12 04:32:48;;;;;;;5.07;2.03;;;8.50;99.90;;;;;;5115566;28;20044;-49
2023/04/12 04:35:14;;;;;;;5.95;2.20;;;8.50;99.90;;;;;;5115012;28;20035;-53
2023/04/12 04:37:40;;;;;;;6.07;2.08;;;8.40;99.90;;;;;;5115258;28;20039;-50
2023/04/12 04:40:16;;;;;;;6.82;1.95;;;8.40;99.90;;;;;;5115145;28;20512;-49
2023/04/12 04:42:42;;;;;;;4.85;2.03;;;8.40;99.90;;;;;;5115205;28;20116;-53
2023/04/12 04:45:12;;;;;;;6.10;1.98;;;8.40;99.90;;;;;;5088677;28;20475;-48
2023/04/12 04:47:39;;;;;;;5.07;1.95;;;8.40;99.90;;;;;;5105224;28;20043;-52
2023/04/12 04:50:06;;;;;;;4.10;1.85;;;8.40;99.90;;;;;;5103850;28;20039;-51
2023/04/12 04:52:31;;;;;;;4.38;2.30;;;8.40;99.90;;;;;;5100923;28;20120;-54
2023/04/12 04:54:57;;;;;;;4.78;1.88;;;8.40;99.90;;;;;;5095326;28;20040;-52
2023/04/12 04:57:25;;;;;;;5.82;2.00;;;8.30;99.90;;;;;;5095305;28;20035;-49
2023/04/12 04:59:51;;;;;;;3.53;1.90;;;8.30;99.90;;;;;;5095228;28;20880;-50
2023/04/12 05:02:16;;;;;;;5.50;2.22;;;8.30;99.90;;;;;;5097777;28;20059;-50
2023/04/12 05:04:42;;;;;;;4.68;1.77;;;8.30;99.90;;;;;;5101780;28;20122;-49
2023/04/12 05:07:07;;;;;;;6.63;2.10;;;8.30;99.90;;;;;;5105514;28;20036;-49
2023/04/12 05:09:33;;;;;;;6.45;2.17;;;8.30;99.90;;;;;;5087549;28;20484;-52
2023/04/12 05:11:59;;;;;;;4.10;2.00;;;8.20;99.90;;;;;;5105112;28;20046;-49
2023/04/12 05:14:24;;;;;;;5.10;1.83;;;8.20;99.90;;;;;;5089049;28;20043;-49
2023/04/12 05:16:50;;;;;;;3.97;1.92;;;8.20;99.90;;;;;;5087668;28;20413;-50
2023/04/12 05:19:15;;;;;;;6.20;2.42;;;8.20;99.90;;;;;;5087031;28;20047;-49
2023/04/12 05:21:41;;;;;;;4.60;2.13;;;8.20;99.90;;;;;;5105644;28;20100;-49
2023/04/12 05:24:07;;;;;;;4.75;2.35;;;8.20;99.90;;;;;;5112156;28;20050;-50
2023/04/12 05:26:33;;;;;;;3.38;2.00;;;8.20;99.90;;;;;;5113155;28;20043;-49
2023/04/12 05:29:00;;;;;;;4.80;2.10;;;8.20;99.90;;;;;;5069109;28;20374;-54
2023/04/12 05:31:26;;;;;;;4.23;2.23;;;8.20;99.90;;;;;;5111764;28;20075;-51
2023/04/12 05:33:53;;;;;;;7.88;2.13;;;8.20;99.90;;;;;;5112870;28;20051;-50
2023/04/12 05:36:19;;;;;;;5.70;1.85;;;8.20;99.90;;;;;;5111028;28;20040;-51
2023/04/12 05:38:45;;;;;;;7.05;2.58;;;8.10;99.90;;;;;;5106219;28;20062;-50
2023/04/12 05:41:11;;;;;;;5.68;1.70;;;8.10;99.90;;;;;;5092886;27;20056;-50
2023/04/12 05:43:37;;;;;;;5.68;2.30;;;8.10;99.90;;;;;;5117519;27;20051;-53
2023/04/12 05:46:04;;;;;;;7.40;2.17;;;8.10;99.90;;;;;;5097963;27;20097;-51
2023/04/12 05:48:30;;;;;;;3.95;1.75;;;8.10;99.90;;;;;;5114807;27;20043;-53
2023/04/12 05:50:55;;;;;;;4.90;2.03;;;8.10;99.90;;;;;;5098810;27;20553;-54
2023/04/12 05:53:21;;;;;;;6.93;2.38;;;8.10;99.90;;;;;;5117885;27;20042;-50
2023/04/12 05:55:47;;;;;;;4.68;2.30;;;8.00;99.90;;;;;;5117905;27;20100;-51
2023/04/12 05:58:12;;;;;;;7.07;2.67;;;8.00;99.90;;;;;;5112722;27;20480;-53
2023/04/12 06:00:40;;;;;;;6.13;2.15;;;8.00;99.90;;;;;;5112470;27;20072;-53
2023/04/12 06:03:08;;;;;;;7.28;2.42;;;8.00;99.90;;;;;;5108520;27;20062;-50
2023/04/12 06:05:34;;;;;;;5.43;2.33;;;8.00;99.90;;;;;;5113647;27;20482;-52
2023/04/12 06:08:00;;;;;;;7.38;2.28;;;8.00;99.90;;;;;;5115844;27;20036;-49
2023/04/12 06:10:26;;;;;;;6.65;2.28;;;8.00;99.90;;;;;;5102306;28;20092;-51
2023/04/12 06:12:52;;;;;;;7.20;2.13;;;8.00;99.90;;;;;;5113838;28;20435;-50
2023/04/12 06:15:19;;;;;;;6.25;2.42;;;8.00;99.90;;;;;;5098322;28;20424;-49
2023/04/12 06:17:45;;;;;;;5.30;2.20;;;8.00;99.90;;;;;;5096959;28;20047;-50
2023/04/12 06:20:11;;;;;;;6.20;2.17;;;8.00;99.90;;;;;;5113006;28;20035;-49
2023/04/12 06:22:37;;;;;;;7.22;2.50;;;8.00;99.90;;;;;;5095730;28;20039;-50
2023/04/12 06:25:03;;;;;;;4.55;2.00;;;8.00;99.90;;;;;;5113645;28;20040;-49
2023/04/12 06:27:29;;;;;;;3.53;1.77;;;8.00;99.90;;;;;;5113398;28;20036;-49
2023/04/12 06:29:55;;;;;;;4.32;2.13;;;8.00;99.90;;;;;;5106319;28;20711;-52
2023/04/12 06:32:21;;;;;;;5.28;2.13;;;8.00;99.90;;;;;;5105075;28;20040;-50
2023/04/12 06:34:47;;;;;;;4.10;1.90;;;8.00;99.90;;;;;;5104963;28;20044;-49
2023/04/12 06:37:12;;;;;;;5.97;2.20;;;8.00;99.90;;;;;;5105850;28;20127;-49
2023/04/12 06:39:38;;;;;;;4.88;2.40;;;8.00;99.90;;;;;;5104254;28;20460;-49
2023/04/12 06:42:04;;;;;;;4.07;1.80;;;8.00;99.90;;;;;;5098301;28;20132;-49
2023/04/12 06:44:29;;;;;;;5.43;2.08;;;8.00;99.90;;;;;;5107698;28;20083;-49
2023/04/12 06:46:55;;;;;;;6.03;2.08;;;8.00;99.90;;;;;;5102796;28;20043;-52
2023/04/12 06:49:20;;;;;;;4.63;2.28;;;8.00;99.90;;;;;;5106214;28;20038;-51
2023/04/12 06:51:46;;;;;;;8.10;2.78;;;8.00;99.90;;;;;;5108349;28;20040;-51
2023/04/12 06:54:13;;;;;;;4.95;2.30;;;8.00;99.90;;;;;;5104472;28;20036;-50
2023/04/12 06:56:38;;;;;;;6.22;2.47;;;8.00;99.90;;;;;;5107529;28;20047;-49
2023/04/12 06:59:04;;;;;;;5.43;2.08;;;8.00;99.90;;;;;;5100620;28;20039;-54
2023/04/12 07:01:30;;;;;;;4.95;2.10;;;8.00;99.90;;;;;;5105248;28;20581;-53
2023/04/12 07:03:55;;;;;;;4.32;1.85;;;8.00;99.90;;;;;;5080384;28;20079;-50
2023/04/12 07:06:21;;;;;;;5.88;2.28;;;8.10;99.90;;;;;;5104959;28;22028;-49
2023/04/12 07:08:49;;;;;;;5.20;1.85;;;8.00;99.90;;;;;;5102847;28;20046;-50
2023/04/12 07:11:16;;;;;;;5.90;2.35;;;8.00;99.90;;;;;;5111434;28;20039;-49
2023/04/12 07:13:41;;;;;;;4.22;1.92;;;8.00;99.90;;;;;;5110647;27;20043;-50
2023/04/12 07:16:07;;;;;;;4.43;2.10;;;8.10;99.90;;;;;;5110047;28;20036;-49
2023/04/12 07:18:32;;;;;;;2.28;2.00;;;8.10;99.90;;;;;;5110751;28;20043;-50
2023/04/12 07:20:58;;;;;;;3.75;2.10;;;8.10;99.90;;;;;;5109003;28;20092;-50
2023/04/12 07:23:24;;;;;;;4.15;2.00;;;8.10;99.90;;;;;;5109704;28;20518;-49
2023/04/12 07:25:50;;;;;;;4.50;2.00;;;8.10;99.90;;;;;;5108191;28;20032;-50
2023/04/12 07:28:17;;;;;;;3.72;2.17;;;8.10;99.90;;;;;;5114732;28;20050;-50
2023/04/12 07:30:43;;;;;;;5.68;2.60;;;8.10;99.90;;;;;;5117043;28;20054;-49
2023/04/12 07:33:08;;;;;;;5.30;2.47;;;8.10;99.90;;;;;;5113564;28;20043;-50
2023/04/12 07:35:34;;;;;;;3.65;2.15;;;8.10;99.90;;;;;;5113312;28;20044;-49
2023/04/12 07:38:00;;;;;;;3.85;2.40;;;8.10;99.90;;;;;;5117415;28;20377;-51
2023/04/12 07:40:26;;;;;;;4.93;2.13;;;8.10;99.90;;;;;;5113359;28;20090;-49
2023/04/12 07:42:52;;;;;;;3.55;2.40;;;8.10;99.90;;;;;;5101678;28;20044;-50
2023/04/12 07:45:18;;;;;;;4.82;2.97;;;8.10;99.90;;;;;;5119018;28;20186;-51
2023/04/12 07:47:44;;;;;;;5.75;2.78;;;8.10;99.90;;;;;;5114943;28;20054;-51
2023/04/12 07:50:10;;;;;;;8.20;3.17;;;8.10;99.90;;;;;;5107642;28;20031;-53
2023/04/12 07:52:36;;;;;;;5.35;3.03;;;8.10;99.90;;;;;;5106020;28;20401;-51
2023/04/12 07:55:01;;;;;;;6.38;3.33;;;8.00;99.90;;;;;;5108653;28;20474;-53
2023/04/12 07:57:27;;;;;;;4.25;2.65;;;8.10;99.90;;;;;;5087325;28;20501;-51
2023/04/12 07:59:52;;;;;;;3.60;2.38;;;8.00;99.90;;;;;;5112567;27;20046;-50
2023/04/12 08:02:23;;;;;;;3.88;2.60;;;8.10;99.90;;;;;;5108302;28;20039;-49
2023/04/12 08:04:53;;;;;;;3.08;2.53;;;8.10;99.90;;;;;;5079984;28;20054;-51
2023/04/12 08:07:21;;;;;;;4.63;3.20;;;8.20;99.90;;;;;;5109625;27;20556;-50
2023/04/12 08:09:47;;;;;;;5.20;3.78;;;;;;;;;;5093753;28;20059;-50
2023/04/12 08:12:14;;;;;;;5.93;3.40;;;8.20;99.90;;;;;;5114377;28;20048;-54
2023/04/12 08:14:39;;;;;;;4.50;2.88;;;8.20;99.90;;;;;;5115937;28;20048;-49
2023/04/12 08:17:05;;;;;;;3.95;2.88;;;8.20;99.90;;;;;;5111456;28;20504;-50
2023/04/12 08:19:31;;;;;;;6.07;3.60;;;8.20;99.90;;;;;;5108777;27;20038;-49
2023/04/12 08:21:56;;;;;;;3.75;3.35;;;8.20;99.90;;;;;;5116419;27;20044;-50
2023/04/12 08:24:22;;;;;;;5.57;3.47;;;8.20;99.90;;;;;;5111132;28;20485;-49
2023/04/12 08:26:50;;;;;;;7.32;3.80;;;8.20;99.90;;;;;;5112792;28;20071;-51
2023/04/12 08:29:16;;;;;;;4.72;3.90;;;8.20;99.90;;;;;;5115594;28;20401;-50
2023/04/12 08:31:42;;;;;;;3.85;3.10;;;8.30;99.90;;;;;;5090966;28;20489;-50
2023/04/12 08:34:08;;;;;;;6.43;3.50;;;8.40;99.90;;;;;;5112332;28;20063;-49
2023/04/12 08:36:33;;;;;;;5.82;3.10;;;8.50;99.90;;;;;;5112968;28;20027;-48
2023/04/12 08:38:59;;;;;;;4.40;3.47;;;8.50;99.90;;;;;;5114707;28;20075;-48
2023/04/12 08:41:25;;;;;;;3.58;3.28;;;8.60;99.90;;;;;;5113451;28;20083;-48
2023/04/12 08:43:51;;;;;;;6.45;3.42;;;8.60;99.90;;;;;;5095463;28;20051;-49
2023/04/12 08:46:17;;;;;;;4.03;3.30;;;8.60;99.90;;;;;;5113118;28;20040;-48
2023/04/12 08:48:48;;;;;;;5.50;3.33;;;8.70;99.90;;;;;;5111686;27;20040;-49
2023/04/12 08:51:18;;;;;;;5.35;3.90;;;8.70;99.90;;;;;;5113009;28;20051;-48
2023/04/12 08:53:44;;;;;;;6.22;4.20;;;8.70;99.90;;;;;;5105107;28;20082;-49
2023/04/12 08:56:11;;;;;;;5.15;4.50;;;8.70;99.90;;;;;;5113131;28;20101;-52
2023/04/12 08:58:44;;;;;;;5.80;5.30;;;8.70;99.90;;;;;;5114157;28;20070;-48
2023/04/12 09:01:14;;;;;;;6.15;4.38;;;8.70;99.90;;;;;;5113080;28;20505;-50
2023/04/12 09:03:41;;;;;;;4.68;4.30;;;8.70;99.90;;;;;;5113991;28;20047;-50
2023/04/12 09:06:07;;;;;;;5.88;4.38;;;8.70;99.90;;;;;;5109662;28;20045;-49
2023/04/12 09:08:33;;;;;;;5.32;4.78;;;8.70;99.90;;;;;;5112795;28;20079;-49
2023/04/12 09:10:59;;;;;;;8.13;5.63;;;8.70;99.90;;;;;;5114554;28;20047;-49
2023/04/12 09:13:35;;;;;;;6.18;5.40;;;8.70;99.90;;;;;;5113187;28;20032;-52
2023/04/12 09:16:02;;;;;;;5.93;5.32;;;8.80;99.90;;;;;;5108943;28;20122;-50
2023/04/12 09:18:27;;;;;;;5.50;5.00;;;8.80;99.90;;;;;;5113934;28;20054;-51
2023/04/12 09:21:10;;;;;;;6.38;5.20;;;8.80;99.90;;;;;;5113957;28;20485;-50
2023/04/12 09:23:36;;;;;;;6.90;6.25;;;8.90;99.90;;;;;;5109378;28;20047;-48
2023/04/12 09:26:03;;;;;;;8.30;7.60;;;9.00;99.90;;;;;;5112750;28;20046;-50
2023/04/12 09:28:29;;;;;;;8.60;6.88;;;9.00;99.90;;;;;;5112467;28;20036;-52
2023/04/12 09:30:57;;;;;;;7.93;7.18;;;9.00;99.90;;;;;;5093301;28;20054;-50
2023/04/12 09:33:38;;;;;;;7.03;6.53;;;9.10;99.90;;;;;;5113110;28;20054;-49
2023/04/12 09:36:12;;;;;;;7.72;7.03;;;9.00;99.90;;;;;;5113796;28;20046;-49
2023/04/12 09:38:38;;;;;;;8.35;6.95;;;9.00;99.90;;;;;;5090119;28;20040;-48
2023/04/12 09:41:21;;;;;;;7.47;6.78;;;9.00;99.90;;;;;;5111384;28;20059;-49
2023/04/12 09:43:47;;;;;;;9.52;8.52;;;9.20;99.90;;;;;;5112714;28;20054;-48
2023/04/12 09:46:14;;;;;;;8.70;8.00;;;9.20;99.90;;;;;;5114311;28;20416;-52
2023/04/12 09:48:47;;;;;;;9.50;8.70;;;9.40;99.90;;;;;;5093316;28;20047;-49
2023/04/12 09:51:13;;;;;;;10.70;9.80;;;9.70;99.90;;;;;;5113124;28;20370;-49
2023/04/12 09:53:43;;;;;;;10.30;9.50;;;9.90;99.90;;;;;;5113774;28;20043;-48
2023/04/12 09:56:10;;;;;;;10.10;9.18;;;10.00;99.90;;;;;;5110195;28;20038;-48
2023/04/12 09:58:37;;;;;;;8.97;8.07;;;10.10;99.90;;;;;;5090568;28;20122;-48
2023/04/12 10:01:06;;;;;;;7.85;7.05;;;10.20;99.90;;;;;;5110654;28;20048;-48
2023/04/12 10:03:32;;;;;;;6.65;6.05;;;10.30;99.90;;;;;;5114004;28;20489;-48
2023/04/12 10:05:58;;;;;;;8.18;6.43;;;10.40;99.90;;;;;;5093099;28;20058;-48
2023/04/12 10:08:25;;;;;;;9.38;7.30;;;10.40;99.90;;;;;;5111350;28;20035;-48
2023/04/12 10:10:52;;;;;;;7.47;5.85;;;10.50;99.90;;;;;;5113008;28;20047;-48
2023/04/12 10:13:18;;;;;;;6.57;5.40;;;10.60;99.90;;;;;;5111129;28;20370;-51
2023/04/12 10:15:49;;;;;;;10.10;7.45;;;10.60;99.90;;;;;;5103850;28;20374;-49
2023/04/12 10:18:17;;;;;;;9.52;7.30;;;11.00;99.90;;;;;;5111573;28;20036;-48
2023/04/12 10:20:44;;;;;;;9.63;7.22;;;11.60;99.90;;;;;;5095596;28;20075;-49
2023/04/12 10:23:11;;;;;;;7.50;4.80;;;11.90;99.90;;;;;;5111659;28;20039;-48
2023/04/12 10:25:39;;;;;;;5.20;4.03;;;12.10;99.90;;;;;;5111429;28;20293;-48
2023/04/12 10:28:23;;;;;;;7.07;4.07;;;;;;;;;;5113007;28;20040;-48
2023/04/12 10:30:51;;;;;;;6.80;4.85;;;12.10;99.90;;;;;;5112189;28;20051;-48
2023/04/12 10:33:25;;;;;;;7.55;4.53;;;12.40;99.90;;;;;;5109250;28;20052;-48
2023/04/12 10:35:59;;;;;;;9.85;3.90;;;12.40;99.90;;;;;;5111392;28;20047;-49
2023/04/12 10:38:29;;;;;;;8.57;3.17;;;12.60;99.90;;;;;;5112944;28;20086;-49
2023/04/12 10:41:19;;;;;;;5.40;3.20;;;12.50;99.90;;;;;;5112117;28;20112;-48
2023/04/12 10:43:50;;;;;;;7.50;3.97;;;12.80;99.90;;;;;;5111683;28;20126;-48
2023/04/12 10:46:37;;;;;;;10.60;4.65;;;12.90;99.90;;;;;;5113397;28;20028;-49
2023/04/12 10:49:14;;;;;;;8.32;3.20;;;13.10;99.90;;;;;;5087801;28;20400;-51
2023/04/12 10:51:58;;;;;;;7.13;3.33;;;13.10;99.90;;;;;;5112642;28;20443;-48
2023/04/12 10:54:24;;;;;;;8.68;3.17;;;13.40;99.90;;;;;;5110419;28;20497;-49
2023/04/12 10:56:50;;;;;;;6.60;3.20;;;13.30;99.90;;;;;;5113490;28;20118;-48
2023/04/12 10:59:15;;;;;;;8.73;3.38;;;13.30;99.90;;;;;;5112823;28;20471;-50
2023/04/12 11:02:07;;;;;;;8.23;3.05;;;13.20;99.90;;;;;;5110412;28;20032;-49
2023/04/12 11:04:34;;;;;;;7.07;2.70;;;13.20;99.90;;;;;;5111905;28;20044;-48
2023/04/12 11:07:03;;;;;;;8.40;3.35;;;13.50;99.90;;;;;;5095882;28;20135;-50
2023/04/12 11:09:44;;;;;;;8.30;3.20;;;13.60;99.90;;;;;;5107720;28;20135;-49
2023/04/12 11:12:12;;;;;;;10.55;3.72;;;13.80;99.90;;;;;;5092807;28;20383;-49
2023/04/12 11:14:43;;;;;;;9.65;2.85;;;14.30;99.90;;;;;;5101837;28;20411;-51
2023/04/12 11:17:09;;;;;;;8.73;3.20;;;;;;;;;;5112091;28;20048;-48
2023/04/12 11:19:42;;;;;;;7.72;2.70;;;;;;;;;;5094115;28;20122;-48
2023/04/12 11:22:09;;;;;;;10.98;2.92;;;;;;;;;;5111620;28;20071;-48
2023/04/12 11:24:38;;;;;;;5.27;2.53;;;14.60;99.90;;;;;;5104615;28;20074;-52
2023/04/12 11:27:05;;;;;;;8.25;2.72;;;14.20;99.90;;;;;;5111721;28;20651;-49
2023/04/12 11:29:33;;;;;;;9.05;2.50;;;14.20;99.90;;;;;;5110836;28;20044;-51
2023/04/12 11:32:02;;;;;;;8.73;2.55;;;14.30;99.90;;;;;;5111968;28;20055;-48
2023/04/12 11:34:32;;;;;;;10.80;2.60;;;14.00;99.90;;;;;;5077946;28;20105;-49
2023/04/12 11:36:58;;;;;;;10.18;2.90;;;13.80;99.90;;;;;;5109448;28;20489;-48
2023/04/12 11:39:26;;;;;;;6.97;2.42;;;13.70;99.90;;;;;;5109372;28;20046;-49
2023/04/12 11:41:51;;;;;;;;;;;13.60;99.90;;;;;;5111413;28;20130;-49
2023/04/12 11:44:18;;;;;;;8.73;2.83;;;13.60;99.90;;;;;;5112505;28;20342;-49
2023/04/12 11:46:47;;;;;;;9.43;2.70;;;13.60;99.90;;;;;;5114395;28;20039;-48
2023/04/12 11:49:20;;;;;;;8.48;2.45;;;13.60;99.90;;;;;;5081729;28;20066;-51
2023/04/12 11:51:46;;;;;;;10.57;3.00;;;13.80;99.90;;;;;;5114511;28;20048;-49
2023/04/12 11:54:12;;;;;;;7.22;2.55;;;14.00;99.90;;;;;;5113834;28;20040;-48
2023/04/12 11:56:39;;;;;;;13.10;3.13;;;14.20;99.90;;;;;;5074785;28;20044;-49
2023/04/12 11:59:05;;;;;;;9.73;2.38;;;14.40;99.90;;;;;;5113350;28;20051;-48
2023/04/12 12:01:33;;;;;;;8.18;2.40;;;14.60;99.90;;;;;;5116270;28;20039;-49
2023/04/12 12:03:59;;;;;;;;;;;14.80;99.90;;;;;;5110478;28;20036;-50
2023/04/12 12:06:26;;;;;;;8.82;2.72;;;14.80;99.90;;;;;;5095897;28;19919;-48
2023/04/12 12:08:53;;;;;;;8.77;2.70;;;14.90;99.90;;;;;;5086694;28;20032;-50
2023/04/12 12:11:23;;;;;;;11.10;2.58;;;15.10;99.90;;;;;;5115464;28;20209;-49
2023/04/12 12:13:53;;;;;;;8.27;2.75;;;15.00;99.90;;;;;;5092090;28;20046;-47
2023/04/12 12:16:27;;;;;;;6.22;2.40;;;14.80;99.90;;;;;;5108792;27;20047;-52
2023/04/12 12:18:53;;;;;;;11.25;2.95;;;14.80;99.90;;;;;;5113561;28;20165;-49
2023/04/12 12:21:19;;;;;;;9.85;2.53;;;15.00;99.90;;;;;;5114961;28;20047;-48
2023/04/12 12:23:46;;;;;;;7.97;2.55;;;15.20;99.90;;;;;;5114283;28;20035;-50
2023/04/12 12:26:19;;;;;;;9.05;2.55;;;15.20;99.90;;;;;;5114781;28;20031;-48
2023/04/12 12:28:53;;;;;;;10.63;2.55;;;15.20;99.90;;;;;;5076736;28;20039;-48
2023/04/12 12:31:21;;;;;;;11.57;3.17;;;14.90;99.90;;;;;;5104852;28;20043;-48
2023/04/12 12:33:47;;;;;;;11.48;2.78;;;14.80;99.90;;;;;;5115529;27;20048;-48
2023/04/12 12:36:16;;;;;;;8.40;2.38;;;14.70;99.90;;;;;;5114913;28;20508;-48
2023/04/12 12:38:41;;;;;;;8.68;2.15;;;14.60;99.90;;;;;;5110531;28;20042;-49
2023/04/12 12:41:21;;;;;;;5.43;1.85;;;14.50;99.90;;;;;;5119347;27;20051;-49
2023/04/12 12:43:49;;;;;;;9.38;2.17;;;14.40;99.90;;;;;;5123424;27;20042;-48
2023/04/12 12:46:17;;;;;;;7.18;2.70;;;14.30;99.90;;;;;;5127477;27;20085;-49
2023/04/12 12:48:44;;;;;;;6.97;2.47;;;14.10;99.90;;;;;;5130939;27;20479;-50
2023/04/12 12:51:11;;;;;;;9.73;2.38;;;14.00;99.90;;;;;;5129662;27;20035;-48
2023/04/12 12:53:39;;;;;;;8.87;2.23;;;13.90;99.90;;;;;;5123404;27;20036;-47
2023/04/12 12:56:06;;;;;;;6.88;1.92;;;13.80;99.90;;;;;;5127769;27;20289;-48
2023/04/12 12:58:31;;;;;;;10.77;3.10;;;13.60;99.90;;;;;;5114461;27;20122;-49